Tiempo atmosférico en la estación meteorológica de Beasain, Gipuzkoa (245 m.)



Fecha
DESCASC
Temp. máxima en grados centígrados (hora)
DESCASC
Temp. mínima en grados centígrados (hora)
DESCASC
Temp. media en grados centígrados
DESCASC
Racha de viento máxima en m/sg (hora)
DESCASC
Velocidad máxima media en intervalos de 10 minutos(hora)
DESCASC
Precipitaciones diarias en mm
DESCASC
Precipitaciones de 00:00 a 06:00 en mm
DESCASC
Precipitaciones de 06:00 a 12:00 en mm
DESCASC
Precipitaciones de 12:00 a 18:00 en mm
DESCASC
Precipitaciones de 18:00 a 24:00 en mm
DESCASC
18-01-2018 12.2 (15:30) 2.5 (09:30) 7.3 2.5 (04:50) 1.67 (02:20) 0 0 0 0 0
17-01-2018 11.7 (02:50) 5.7 (23:59) 8.7 12.78 (07:20) 5.83 (07:20) 5.8 2.2 2.4 0.8 0.4
16-01-2018 12.9 (16:40) 6.9 (00:00) 9.9 3.33 (17:10) 1.94 (17:10) 0 0 0 0 0
15-01-2018 11 (13:50) 3.8 (09:10) 7.4 3.33 (16:10) 1.67 (16:20) 0.2 0.2 0 0 0
14-01-2018 6.8 (13:00) 4 (00:00) 5.4 3.61 (12:50) 2.22 (12:50) 16 6 3.2 2.6 4.2
13-01-2018 9 (13:50) 3.1 (00:00) 6 8.33 (11:20) 5.28 (07:30) 6.8 0 0 0 6.8
12-01-2018 11.1 (15:00) 2.6 (00:00) 6.9 3.33 (08:30) 1.94 (08:30) 3.2 2.2 1 0 0
11-01-2018 5.6 (12:20) 1.5 (00:00) 3.5 7.5 (15:20) 4.44 (15:10) 18 0 1.6 12 4.4
10-01-2018 -- (--) -- (--) -- -- (--) -- (--) -- 0 -- 0 3.8
09-01-2018 8 (15:10) -2.3 (-00:0) 2.9 13.06 (13:20) 7.22 (12:10) 0.4 0 0 0 0.4
08-01-2018 9 (15:30) -1.1 (-00:0) 3.9 4.17 (12:40) 1.67 (12:40) 0 0 0 0 0
07-01-2018 2.2 (15:50) 0 (00:00) 1.1 3.61 (18:50) 1.67 (11:40) 7.2 5.8 0.8 0.6 0
06-01-2018 6.8 (00:00) -0.1 (00:00) 3.4 2.5 (06:00) 1.39 (06:00) 51.4 11 6.8 21 12.6
05-01-2018 15 (01:00) 6.8 (00:00) 10.9 21.94 (05:40) 7.22 (07:10) 15 0 0.6 6.4 8
04-01-2018 17.9 (15:00) 8.6 (08:20) 13.3 9.17 (15:00) 4.17 (15:00) 0 0 0 0 0
03-01-2018 16.5 (15:40) 9.6 (00:00) 13.1 4.72 (16:40) 3.06 (16:30) 0.4 0 0 0.2 0.2
02-01-2018 14.2 (16:00) 8.4 (00:00) 11.3 3.33 (09:00) 1.67 (09:00) 8.8 4.2 3.2 1.4 0
01-01-2018 13.2 (14:20) 0.9 (00:00) 7 13.33 (13:50) 6.39 (13:20) 24.2 0 0 8.4 15.8
31-12-2017 17.1 (14:00) 4 (00:00) 10.6 20.28 (13:50) 8.89 (13:50) 7.4 0 0 5.6 1.8
30-12-2017 18.3 (16:10) 7.8 (00:00) 13 4.72 (01:40) 2.22 (04:30) 0 0 0 0 0
29-12-2017 15.3 (14:50) 6.8 (00:00) 11.1 5.83 (01:00) 2.78 (01:00) 6 1 5 0 0
28-12-2017 10 (15:50) 4.1 (00:00) 7 11.94 (16:00) 4.72 (15:50) 16.8 3.6 3 4.8 5.4
27-12-2017 10.3 (00:30) 4.2 (00:00) 7.3 19.17 (00:40) 7.22 (09:50) 29.8 7.2 13.2 2 7.4
26-12-2017 11.2 (21:00) 4.6 (00:00) 7.9 15.83 (21:00) 6.94 (21:00) 5.4 5.2 0 0 0.2
25-12-2017 12.9 (14:40) -0.4 (00:00) 6.2 13.33 (19:10) 7.78 (19:00) 0 0 0 0 0
24-12-2017 13.5 (15:00) 1.8 (00:00) 7.6 1.94 (07:40) 1.39 (16:40) 0 0 0 0 0
23-12-2017 9.4 (14:00) 6.7 (00:00) 8 5.28 (14:00) 3.33 (14:10) 2.6 2.6 0 0 0
22-12-2017 7.6 (16:40) 4.6 (00:00) 6.1 2.78 (12:30) 1.67 (12:40) 0.8 0 0.2 0.2 0.4
21-12-2017 13.3 (15:30) 3.6 (00:00) 8.5 6.11 (17:00) 3.33 (17:00) 0 0 0 0 0

Gráficas

Temp. máximas Temp. mínimas Temp. medias Precipitaciones Rachas de viento máximas Velocidades máximas media en intervalos de 10 minutos

Datos horarios

Fecha y hora oficial Temperatura (ºC) Velocidad del viento (km/h) Dirección del viento Racha (km/h) Dirección de racha Precipitación (mm) Presión (hPa) Tendencia (hPa) Humedad (%)
2018-01-19 23:00:00 7.8 4 Sudeste 7 Sudeste 0.4 -- -- 100
2018-01-19 22:00:00 7.8 3 Nordeste 5 Sudoeste 1.4 -- -- 100
2018-01-19 21:00:00 7.8 2 Norte 6 Oeste 0.6 -- -- 100
2018-01-19 20:00:00 7.8 4 Oeste 10 Noroeste 0.8 -- -- 100
2018-01-19 19:00:00 7.8 2 Oeste 9 Norte 1 -- -- 100
2018-01-19 18:00:00 8.3 2 Nordeste 5 Sudeste 1.4 -- -- 100
2018-01-19 17:00:00 8.5 3 Sudeste 10 Norte 0.4 -- -- 100
2018-01-19 16:00:00 8.6 0 Calma 5 Norte 0.8 -- -- 100
2018-01-19 15:00:00 8.7 0 Calma 9 Oeste 0.2 -- -- 99
2018-01-19 14:00:00 8.9 8 Noroeste 31 Norte 0.6 -- -- 96
2018-01-19 13:00:00 9.3 4 Sudeste 10 Este 0.6 -- -- 100
2018-01-19 12:00:00 9.2 4 Norte 13 Noroeste 0.2 -- -- 100
2018-01-19 11:00:00 8.9 5 Sudeste 8 Sudeste 0.8 -- -- 100
2018-01-19 10:00:00 8.4 4 Norte 6 Nordeste 0.6 -- -- 100
2018-01-19 09:00:00 7.9 2 Norte 7 Sudeste 0 -- -- 100
2018-01-19 08:00:00 7.7 5 Sudeste 9 Sudeste 0.4 -- -- 100
2018-01-19 07:00:00 7.7 3 Sudeste 7 Norte 0.2 -- -- 100
2018-01-19 06:00:00 7.5 5 Norte 7 Noroeste 0.2 -- -- 100
2018-01-19 05:00:00 7.5 0 Calma 4 Oeste 0.2 -- -- 100
2018-01-19 04:00:00 7.4 3 Noroeste 5 Oeste 0.6 -- -- 100
2018-01-19 03:00:00 7.3 3 Sudeste 4 Sudeste 0.2 -- -- 100
2018-01-19 02:00:00 7.3 0 Calma 3 Noroeste 0 -- -- 100
2018-01-19 01:00:00 7.2 0 Calma 5 Este 0 -- -- 100
2018-01-19 00:00:00 7.1 3 Sudeste 9 Sudeste 0 -- -- 100
2018-01-18 23:00:00 7 3 Sudeste 5 Sudeste 0 -- -- 100
2018-01-18 22:00:00 7.1 0 Calma 5 Norte 0 -- -- 99
2018-01-18 21:00:00 6.7 3 Norte 8 Oeste 0 -- -- 99
2018-01-18 20:00:00 6.8 2 Noroeste 4 Noroeste 0 -- -- 98
2018-01-18 19:00:00 7.3 0 Calma 8 Noroeste 0 -- -- 95
2018-01-18 18:00:00 8.6 3 Norte 6 Norte 0 -- -- 93
2018-01-18 17:00:00 11.2 4 Noroeste 6 Noroeste 0 -- -- 79
2018-01-18 16:00:00 11.8 3 Noroeste 7 Noroeste 0 -- -- 78
2018-01-18 15:00:00 11.3 4 Oeste 9 Sudoeste 0 -- -- 76
2018-01-18 14:00:00 9.7 4 Oeste 8 Sur 0 -- -- 85
2018-01-18 13:00:00 6 4 Noroeste 7 Noroeste 0 -- -- 100
2018-01-18 12:00:00 3.9 3 Sur 7 Sur 0 -- -- 100
2018-01-18 11:00:00 3.1 2 Oeste 5 Oeste 0 -- -- 100
2018-01-18 10:00:00 2.6 2 Sudeste 9 Norte 0 -- -- 100
2018-01-18 09:00:00 2.9 4 Norte 7 Norte 0 -- -- 100
2018-01-18 08:00:00 3 0 Calma 8 Norte 0 -- -- 100
2018-01-18 07:00:00 3.4 2 Oeste 6 Noroeste 0 -- -- 100
2018-01-18 06:00:00 3.7 3 Noroeste 6 Norte 0 -- -- 100
2018-01-18 05:00:00 4.2 4 Norte 9 Norte 0 -- -- 100
2018-01-18 04:00:00 4.5 5 Norte 8 Noroeste 0 -- -- 100
2018-01-18 03:00:00 4.8 3 Este 9 Noroeste 0 -- -- 100
2018-01-18 02:00:00 5.4 3 Norte 6 Norte 0 -- -- 100
2018-01-18 01:00:00 5.6 4 Norte 8 Norte 0 -- -- 100
2018-01-18 00:00:00 5.7 4 Noroeste 5 Noroeste 0 -- -- 100
2018-01-17 23:00:00 6.2 0 Calma 6 Noroeste 0 -- -- 100
2018-01-17 22:00:00 7.1 3 Noroeste 6 Noroeste 0.2 -- -- 100
2018-01-17 21:00:00 7.2 3 Norte 4 Norte 0 -- -- 100
2018-01-17 20:00:00 7.3 2 Norte 4 Norte 0 -- -- 100
2018-01-17 19:00:00 7.6 2 Este 5 Norte 0.2 -- -- 99
2018-01-17 18:00:00 8 0 Calma 17 Oeste 0.4 -- -- 96
2018-01-17 17:00:00 8.7 0 Calma 8 Norte 0 -- -- 94
2018-01-17 16:00:00 8.8 2 Sudeste 13 Noroeste 0 -- -- 93
2018-01-17 15:00:00 9.1 4 Oeste 19 Norte 0.2 -- -- 92
2018-01-17 14:00:00 9.3 7 Oeste 24 Oeste 0.2 -- -- 90
2018-01-17 13:00:00 9.5 4 Noroeste 27 Noroeste 0 -- -- 85
2018-01-17 12:00:00 10.4 8 Noroeste 28 Norte 0.2 -- -- 80
2018-01-17 11:00:00 8.6 9 Noroeste 28 Norte 0 -- -- 85
2018-01-17 10:00:00 8.1 6 Noroeste 32 Norte 0.4 -- -- 95
2018-01-17 09:00:00 8.2 13 Norte 27 Noroeste 0.8 -- -- 86
2018-01-17 08:00:00 8.4 8 Noroeste 46 Noroeste 0.2 -- -- 88
2018-01-17 07:00:00 8.8 17 Noroeste 39 Norte 0.8 -- -- 90
2018-01-17 06:00:00 9.4 13 Noroeste 36 Norte 0.4 -- -- 87
2018-01-17 05:00:00 10.4 15 Norte 42 Norte 0.2 -- -- 83
2018-01-17 04:00:00 10.7 8 Noroeste 41 Nordeste 0.4 -- -- 88
2018-01-17 03:00:00 11.6 9 Norte 32 Nordeste 0.4 -- -- 85
2018-01-17 02:00:00 11.2 12 Norte 41 Nordeste 0.8 -- -- 92
2018-01-17 01:00:00 9.6 2 Sudoeste 8 Este 0 -- -- 99
2018-01-17 00:00:00 9.8 3 Nordeste 6 Este 0 -- -- 96
2018-01-16 23:00:00 10 0 Calma 5 Noroeste 0 -- -- 95
2018-01-16 22:00:00 10 0 Calma 6 Norte 0 -- -- 95
2018-01-16 21:00:00 10.3 2 Sur 6 Sudeste 0 -- -- 94
2018-01-16 20:00:00 10.6 3 Oeste 7 Noroeste 0 -- -- 93
2018-01-16 19:00:00 10.8 2 Noroeste 9 Noroeste 0 -- -- 93
2018-01-16 18:00:00 11.6 0 Calma 12 Noroeste 0 -- -- 92
2018-01-16 17:00:00 12.5 4 Norte 8 Noroeste 0 -- -- 89
2018-01-16 16:00:00 12.7 0 Calma 6 Noroeste 0 -- -- 87
2018-01-16 15:00:00 12.5 3 Norte 6 Oeste 0 -- -- 87
2018-01-16 14:00:00 12.2 3 Sudeste 7 Sudeste 0 -- -- 82
2018-01-16 13:00:00 10.9 2 Sudoeste 4 Sur 0 -- -- 86
2018-01-16 12:00:00 9.7 0 Calma 5 Norte 0 -- -- 92
2018-01-16 11:00:00 8.6 4 Norte 7 Sudeste 0 -- -- 97
2018-01-16 10:00:00 8 0 Calma 7 Noroeste 0 -- -- 98
2018-01-16 09:00:00 7.6 3 Norte 5 Oeste 0 -- -- 98
2018-01-16 08:00:00 7.6 2 Norte 4 Este 0 -- -- 98
2018-01-16 07:00:00 7.6 2 Noroeste 5 Oeste 0 -- -- 97
2018-01-16 06:00:00 7.5 3 Noroeste 10 Oeste 0 -- -- 97
2018-01-16 05:00:00 7.3 2 Sudeste 5 Este 0 -- -- 96
2018-01-16 04:00:00 7.5 3 Noroeste 5 Noroeste 0 -- -- 95
2018-01-16 03:00:00 7.2 2 Noroeste 6 Noroeste 0 -- -- 97
2018-01-16 02:00:00 7.1 0 Calma 6 Noroeste 0 -- -- 97
2018-01-16 01:00:00 6.9 3 Sudeste 5 Sudeste 0 -- -- 96
2018-01-16 00:00:00 6.9 3 Noroeste 8 Noroeste 0 -- -- 94
2018-01-15 23:00:00 6.8 4 Noroeste 6 Noroeste 0 -- -- 94
2018-01-15 22:00:00 6.8 3 Norte 8 Norte 0 -- -- 92
2018-01-15 21:00:00 6.7 4 Norte 8 Noroeste 0 -- -- 91
2018-01-15 20:00:00 6.8 2 Norte 6 Noroeste 0 -- -- 88
2018-01-15 19:00:00 7.4 4 Sudeste 9 Sudeste 0 -- -- 74
2018-01-15 18:00:00 7.5 3 Norte 8 Noroeste 0 -- -- 83
2018-01-15 17:00:00 8.8 2 Nordeste 12 Sudeste 0 -- -- 72
2018-01-15 16:00:00 9.8 4 Sudeste 11 Este 0 -- -- 75
2018-01-15 15:00:00 10.8 2 Este 6 Sudeste 0 -- -- 77
2018-01-15 14:00:00 10.9 2 Nordeste 6 Sudoeste 0 -- -- 79
2018-01-15 13:00:00 8.4 4 Noroeste 6 Noroeste 0 -- -- 100
2018-01-15 12:00:00 6.7 0 Calma 6 Sur 0 -- -- 100
2018-01-15 11:00:00 5.1 2 Sudeste 5 Sur 0 -- -- 100
2018-01-15 10:00:00 4.1 3 Sudeste 5 Sudeste 0 -- -- 100
2018-01-15 09:00:00 3.9 0 Calma 5 Sudeste 0 -- -- 100
2018-01-15 08:00:00 4.1 3 Sur 6 Sudeste 0 -- -- 100
2018-01-15 07:00:00 4.2 3 Norte 6 Noroeste 0 -- -- 100
2018-01-15 06:00:00 4.4 3 Norte 5 Noroeste 0 -- -- 100
2018-01-15 05:00:00 4.5 4 Norte 5 Norte 0 -- -- 100
2018-01-15 04:00:00 4.5 0 Calma 4 Norte 0 -- -- 100
2018-01-15 03:00:00 4.6 0 Calma 8 Sudeste 0 -- -- 100
2018-01-15 02:00:00 4.6 0 Calma 5 Este 0.2 -- -- 100
2018-01-15 01:00:00 4.6 0 Calma 5 Noroeste 0 -- -- 100
2018-01-15 00:00:00 4.8 4 Norte 6 Noroeste 0 -- -- 100
2018-01-14 23:00:00 5 3 Norte 5 Nordeste 0 -- -- 100
2018-01-14 22:00:00 5.2 2 Oeste 10 Norte 1.4 -- -- 100
2018-01-14 21:00:00 5.3 2 Sudoeste 5 Sudeste 1.4 -- -- 100
2018-01-14 20:00:00 5.6 3 Noroeste 11 Noroeste 0.8 -- -- 99
2018-01-14 19:00:00 5.9 3 Noroeste 8 Norte 0.6 -- -- 100
2018-01-14 18:00:00 6.1 2 Sudoeste 6 Sudoeste 0.4 -- -- 100
2018-01-14 17:00:00 6.4 2 Sudeste 6 Este 1.4 -- -- 100
2018-01-14 16:00:00 6.6 3 Noroeste 6 Norte 0.6 -- -- 99
2018-01-14 15:00:00 6.7 3 Noroeste 11 Norte 0.2 -- -- 96
2018-01-14 14:00:00 6.8 4 Noroeste 13 Noroeste 0 -- -- 91
2018-01-14 13:00:00 6.8 5 Noroeste 13 Noroeste 0 -- -- 90
2018-01-14 12:00:00 6 3 Sudoeste 12 Norte 0 -- -- 100
2018-01-14 11:00:00 5 4 Sudeste 6 Este 0.4 -- -- 100
2018-01-14 10:00:00 4.4 0 Calma 5 Norte 2 -- -- 100
2018-01-14 09:00:00 4.2 0 Calma 10 Este 0.2 -- -- 100
2018-01-14 08:00:00 4.1 0 Calma 5 Sudeste 0.2 -- -- 100
2018-01-14 07:00:00 4.1 0 Calma 4 Noroeste 0.4 -- -- 100
2018-01-14 06:00:00 4 0 Calma 4 Sudeste 1.2 -- -- 100
2018-01-14 05:00:00 4 0 Calma 2 Noroeste 1 -- -- 100
2018-01-14 04:00:00 4.2 0 Calma 3 Norte 1 -- -- 100
2018-01-14 03:00:00 4.3 0 Calma 3 Noroeste 1 -- -- 100
2018-01-14 02:00:00 4.4 0 Calma 5 Noroeste 0.6 -- -- 100
2018-01-14 01:00:00 4.6 3 Noroeste 4 Noroeste 1.2 -- -- 100
2018-01-14 00:00:00 4.9 2 Noroeste 6 Noroeste 1.4 -- -- 100
2018-01-13 23:00:00 5.2 0 Calma 6 Noroeste 1.4 -- -- 100
2018-01-13 22:00:00 5.3 2 Norte 9 Noroeste 1.8 -- -- 100
2018-01-13 21:00:00 5.5 4 Noroeste 7 Noroeste 1 -- -- 100
2018-01-13 20:00:00 5.7 3 Norte 7 Noroeste 0.8 -- -- 98
2018-01-13 19:00:00 6.6 4 Noroeste 13 Sudoeste 0.4 -- -- 91
2018-01-13 18:00:00 7.9 2 Nordeste 16 Sudoeste 0 -- -- 71
2018-01-13 17:00:00 8.4 6 Sudoeste 24 Sur 0 -- -- 70
2018-01-13 16:00:00 8.1 4 Sudeste 19 Sur 0 -- -- 71
2018-01-13 15:00:00 8.6 10 Sudoeste 24 Sur 0 -- -- 68
2018-01-13 14:00:00 8.9 13 Sudoeste 26 Sudoeste 0 -- -- 64
2018-01-13 13:00:00 8.7 10 Sur 28 Sur 0 -- -- 66
2018-01-13 12:00:00 8.7 12 Sur 30 Sur 0 -- -- 68
2018-01-13 11:00:00 8.7 13 Sudeste 27 Sur 0 -- -- 65
2018-01-13 10:00:00 7.2 5 Norte 13 Noroeste 0 -- -- 72
2018-01-13 09:00:00 7 7 Sur 27 Sudeste 0 -- -- 75
2018-01-13 08:00:00 8 12 Sur 30 Sudeste 0 -- -- 70
2018-01-13 07:00:00 7.6 13 Sur 27 Sur 0 -- -- 72
2018-01-13 06:00:00 7.7 8 Sur 27 Sur 0 -- -- 70
2018-01-13 05:00:00 7.3 7 Sudeste 26 Este 0 -- -- 72
2018-01-13 04:00:00 6.5 10 Sudeste 23 Sudeste 0 -- -- 80
2018-01-13 03:00:00 3.2 3 Noroeste 6 Nordeste 0 -- -- 100
2018-01-13 02:00:00 3.2 2 Norte 5 Noroeste 0 -- -- 100
2018-01-13 01:00:00 3.1 3 Noroeste 6 Noroeste 0 -- -- 100
2018-01-13 00:00:00 3.6 2 Este 8 Este 0 -- -- 100
2018-01-12 23:00:00 3.8 0 Calma 6 Este 0 -- -- 100
2018-01-12 22:00:00 3.7 2 Sudeste 5 Sudeste 0 -- -- 100
2018-01-12 21:00:00 3.9 0 Calma 4 Noroeste 0 -- -- 100
2018-01-12 20:00:00 4.8 4 Noroeste 5 Noroeste 0 -- -- 100
2018-01-12 19:00:00 5.9 3 Nordeste 6 Noroeste 0 -- -- 99
2018-01-12 18:00:00 7 4 Norte 6 Norte 0 -- -- 97
2018-01-12 17:00:00 8.5 3 Noroeste 6 Noroeste 0 -- -- 96
2018-01-12 16:00:00 9 3 Norte 8 Oeste 0 -- -- 95
2018-01-12 15:00:00 11.1 5 Noroeste 9 Noroeste 0 -- -- 86
2018-01-12 14:00:00 9.4 4 Oeste 6 Oeste 0 -- -- 100
2018-01-12 13:00:00 7.2 0 Calma 6 Este 0 -- -- 100
2018-01-12 12:00:00 5.9 0 Calma 9 Sudeste 0 -- -- 100
2018-01-12 11:00:00 5 0 Calma 5 Sudeste 0 -- -- 100
2018-01-12 10:00:00 4.3 2 Sudeste 5 Sudeste 0 -- -- 100
2018-01-12 09:00:00 3.5 0 Calma 12 Sudeste 0.4 -- -- 100
2018-01-12 08:00:00 3.4 0 Calma 5 Sudeste 0.4 -- -- 100
2018-01-12 07:00:00 3.1 3 Norte 9 Sudeste 0.2 -- -- 100
2018-01-12 06:00:00 3 0 Calma 6 Norte 0 -- -- 100
2018-01-12 05:00:00 3 0 Calma 4 Sur 0.2 -- -- 100
2018-01-12 04:00:00 3 4 Sudeste 8 Este 0.2 -- -- 100
2018-01-12 03:00:00 2.9 3 Sudeste 6 Sudeste 0.8 -- -- 100
2018-01-12 02:00:00 2.8 2 Norte 6 Sur 0 -- -- 100
2018-01-12 01:00:00 2.8 0 Calma 5 Noroeste 1 -- -- 100
2018-01-12 00:00:00 2.6 3 Sudeste 6 Sudeste 0 -- -- 100
2018-01-11 23:00:00 2.6 0 Calma 6 Sudeste 0 -- -- 100
2018-01-11 22:00:00 2.5 3 Sudeste 5 Este 0 -- -- 100
2018-01-11 21:00:00 2.4 0 Calma 10 Noroeste 0 -- -- 100
2018-01-11 20:00:00 2.2 6 Noroeste 9 Noroeste 0.4 -- -- 100
2018-01-11 19:00:00 1.8 4 Nordeste 14 Norte 4 -- -- 100
2018-01-11 18:00:00 1.9 5 Norte 9 Nordeste 4.4 -- -- 100
2018-01-11 17:00:00 3 4 Norte 6 Noroeste 2.6 -- -- 99
2018-01-11 16:00:00 3.3 4 Noroeste 27 Noroeste 2 -- -- 95
2018-01-11 15:00:00 4.3 16 Noroeste 24 Noroeste 1.6 -- -- 93
2018-01-11 14:00:00 5.1 9 Norte 17 Norte 0.8 -- -- 93
2018-01-11 13:00:00 5.2 4 Noroeste 17 Noroeste 0.6 -- -- 95
2018-01-11 12:00:00 5.3 5 Noroeste 10 Noroeste 0.6 -- -- 100
2018-01-11 11:00:00 4.9 3 Noroeste 8 Norte 0.2 -- -- 100
2018-01-11 10:00:00 3.9 2 Noroeste 5 Norte 0.2 -- -- 100
2018-01-11 09:00:00 3.4 0 Calma 6 Noroeste 0 -- -- 100
2018-01-11 08:00:00 3.5 4 Norte 10 Noroeste 0 -- -- 100
2018-01-11 07:00:00 3.3 3 Norte 14 Noroeste 0.6 -- -- 100
2018-01-11 06:00:00 2.2 0 Calma 7 Este 0 -- -- 100
2018-01-11 05:00:00 2.2 4 Noroeste 8 Este 0 -- -- 100
2018-01-11 04:00:00 1.5 4 Noroeste 8 Noroeste 0 -- -- 100
2018-01-11 03:00:00 1.9 2 Sudeste 6 Noroeste 0 -- -- 100
2018-01-11 02:00:00 2.2 0 Calma 6 Sudeste 0 -- -- 100
2018-01-11 01:00:00 2.7 0 Calma 6 Noroeste 0 -- -- 100
2018-01-11 00:00:00 3.6 2 Norte 6 Norte 0 -- -- 100
2018-01-10 23:00:00 4.5 4 Noroeste 8 Norte 0 -- -- 100
2018-01-10 22:00:00 4.8 3 Norte 9 Norte 0 -- -- 100
2018-01-10 21:00:00 5.8 4 Sur 11 Este 0.2 -- -- 100
2018-01-10 20:00:00 6.1 7 Sudeste 13 Sudeste 1.4 -- -- 98
2018-01-10 19:00:00 6.7 3 Sudoeste 47 Norte 2.2 -- -- 94
2018-01-10 18:00:00 11 12 Sudeste 31 Sudeste 0 -- -- 66
2018-01-10 17:00:00 11.3 13 Sur 39 Sur 0 -- -- 63
2018-01-10 16:00:00 10.5 5 Sudeste 23 Sur 0 -- -- 66
2018-01-10 15:00:00 11 10 Sur 34 Sur 0 -- -- 62
2018-01-10 14:00:00 11.4 10 Sur 31 Sudeste 0 -- -- 60
2018-01-10 13:00:00 11.8 9 Sudeste 18 Este 0 -- -- 58
2018-01-10 12:00:00 8.6 4 Sudeste -- -- -- -- -- 79
2018-01-10 11:00:00 -- -- -- -- -- -- -- -- --
2018-01-10 10:00:00 3.1 0 Calma 5 Noroeste 0 -- -- 100
2018-01-10 09:00:00 2.6 3 Noroeste 6 Noroeste 0 -- -- 100
2018-01-10 08:00:00 2 2 Norte 6 Noroeste 0 -- -- 100
2018-01-10 07:00:00 2.5 0 Calma 4 Nordeste 0 -- -- 100
2018-01-10 06:00:00 2.9 2 Sudeste 6 Noroeste 0 -- -- 99
2018-01-10 05:00:00 2.7 0 Calma 4 Oeste 0 -- -- 99
2018-01-10 04:00:00 2.8 0 Calma 7 Noroeste 0 -- -- 98
2018-01-10 03:00:00 2.9 2 Noroeste 8 Noroeste 0 -- -- 97
2018-01-10 02:00:00 3.4 4 Noroeste 10 Sudeste 0 -- -- 92
2018-01-10 01:00:00 4.9 4 Sudoeste 12 Sur 0 -- -- 84
2018-01-10 00:00:00 4.7 3 Noroeste 8 Sudeste 0 -- -- 87
2018-01-09 23:00:00 5.5 5 Norte 23 Sudeste 0 -- -- 81
2018-01-09 22:00:00 6.4 10 Sudeste 22 Sur 0 -- -- 75
2018-01-09 21:00:00 6.6 10 Sur 32 Sudeste 0 -- -- 75
2018-01-09 20:00:00 5.5 9 Sur 28 Sur 0 -- -- 82
2018-01-09 19:00:00 5.3 13 Sudeste 29 Sudeste 0.4 -- -- 84
2018-01-09 18:00:00 5.1 9 Sudeste 39 Sudeste 0 -- -- 82
2018-01-09 17:00:00 5.9 12 Sudeste 32 Sudeste 0 -- -- 71
2018-01-09 16:00:00 6.3 14 Sudeste 31 Sur 0 -- -- 61
2018-01-09 15:00:00 7.6 8 Sudeste 21 Sur 0 -- -- 52
2018-01-09 14:00:00 6.9 9 Este 47 Sudeste 0 -- -- 59
2018-01-09 13:00:00 6.9 19 Sudeste 42 Sudeste 0 -- -- 56
2018-01-09 12:00:00 6.1 18 Sur 37 Sur 0 -- -- 60
2018-01-09 11:00:00 -- -- -- -- -- -- -- -- --
2018-01-09 10:00:00 -- -- -- -- -- -- -- -- --
2018-01-09 09:00:00 -- -- -- -- -- -- -- -- --
2018-01-09 08:00:00 -- -- -- -- -- -- -- -- --
2018-01-09 07:00:00 -- -- -- -- -- -- -- -- --
2018-01-09 06:00:00 -2.2 4 Sudeste 5 Sudeste 0 -- -- 100
2018-01-09 05:00:00 -2.1 0 Calma 4 Norte 0 -- -- 100
2018-01-09 04:00:00 -2 0 Calma 4 Sudeste 0 -- -- 100
2018-01-09 03:00:00 -1.7 0 Calma 4 Sudeste 0 -- -- 100
2018-01-09 02:00:00 -1.5 3 Sudeste 5 Este 0 -- -- 100
2018-01-09 01:00:00 -1.3 0 Calma 5 Este 0 -- -- 100
2018-01-09 00:00:00 -1.1 4 Sudeste 6 Sudeste 0 -- -- 100
2018-01-08 23:00:00 -0.8 0 Calma 5 Sudeste 0 -- -- 100
2018-01-08 22:00:00 -0.4 0 Calma 4 Norte 0 -- -- 100
2018-01-08 21:00:00 0.5 2 Este 4 Norte 0 -- -- 100
2018-01-08 20:00:00 1.5 0 Calma 5 Norte 0 -- -- 99
2018-01-08 19:00:00 2.5 0 Calma 6 Noroeste 0 -- -- 98
2018-01-08 18:00:00 3.9 2 Norte 8 Norte 0 -- -- 96
2018-01-08 17:00:00 6.1 5 Norte 7 Noroeste 0 -- -- 88
2018-01-08 16:00:00 8.3 4 Noroeste 5 Noroeste 0 -- -- 81
2018-01-08 15:00:00 8.7 0 Calma 3 Norte 0 -- -- 82
2018-01-08 14:00:00 7.8 0 Calma 4 Oeste 0 -- -- 86
2018-01-08 13:00:00 4.5 2 Norte 15 Este 0 -- -- 100
2018-01-08 12:00:00 3.2 2 Sur 9 Sudeste 0 -- -- 100
2018-01-08 11:00:00 1 2 Norte 9 Sur 0 -- -- 100
2018-01-08 10:00:00 0.1 3 Sudeste 7 Noroeste 0 -- -- 100
2018-01-08 09:00:00 -0.2 2 Sudeste 6 Sudeste 0 -- -- 100
2018-01-08 08:00:00 -0.2 2 Sudoeste 4 Este 0 -- -- 100
2018-01-08 07:00:00 -0.1 0 Calma 6 Sudeste 0 -- -- 100
2018-01-08 06:00:00 -0.1 4 Sudeste 6 Sudeste 0 -- -- 100
2018-01-08 05:00:00 0.1 0 Calma 4 Sudeste 0 -- -- 100
2018-01-08 04:00:00 0.1 0 Calma 7 Sudeste 0 -- -- 100
2018-01-08 03:00:00 0.3 3 Sur 8 Sudeste 0 -- -- 100
2018-01-08 02:00:00 0.3 2 Sudeste 5 Norte 0 -- -- 100
2018-01-08 01:00:00 0.3 6 Sudeste 9 Sudeste 0 -- -- 100
2018-01-08 00:00:00 0.5 3 Sudeste 6 Norte 0 -- -- 100
2018-01-07 23:00:00 0.7 3 Sudeste 9 Sudeste 0 -- -- 100
2018-01-07 22:00:00 0.7 3 Sudeste 8 Sudeste 0 -- -- 100
2018-01-07 21:00:00 1.1 0 Calma 6 Noroeste 0 -- -- 100
2018-01-07 20:00:00 1.3 2 Sur 8 Sur 0 -- -- 100
2018-01-07 19:00:00 1.6 3 Noroeste 13 Este 0 -- -- 100
2018-01-07 18:00:00 1.8 5 Noroeste 9 Norte 0 -- -- 100
2018-01-07 17:00:00 2.1 0 Calma 8 Sudeste 0 -- -- 100
2018-01-07 16:00:00 2.2 5 Sudeste 8 Este 0 -- -- 100
2018-01-07 15:00:00 1.9 3 Nordeste 9 Este 0.2 -- -- 100
2018-01-07 14:00:00 1.8 0 Calma 7 Sudeste 0.2 -- -- 100
2018-01-07 13:00:00 1.6 0 Calma 9 Norte 0.2 -- -- 100
2018-01-07 12:00:00 1 4 Noroeste 9 Sudeste 0 -- -- 100
2018-01-07 11:00:00 1 5 Sudeste 8 Sudeste 0 -- -- 100
2018-01-07 10:00:00 0.5 4 Norte 6 Noroeste 0.2 -- -- 100
2018-01-07 09:00:00 0.2 0 Calma 7 Sudeste 0 -- -- 100
2018-01-07 08:00:00 0.1 2 Sudeste 6 Sudeste 0.6 -- -- 100
2018-01-07 07:00:00 0.2 0 Calma 4 Noroeste 0 -- -- 100
2018-01-07 06:00:00 0.2 3 Sudeste 6 Este 0 -- -- 100
2018-01-07 05:00:00 0.1 0 Calma 2 Norte 0.2 -- -- 100
2018-01-07 04:00:00 0.1 0 Calma 0 Calma 0.4 -- -- 100
2018-01-07 03:00:00 0.1 0 Calma 0 Calma 1.4 -- -- 100
2018-01-07 02:00:00 0.1 0 Calma 4 Norte 2.2 -- -- 100
2018-01-07 01:00:00 0 3 Norte 5 Norte 1.6 -- -- 100
2018-01-07 00:00:00 0.1 0 Calma 4 Norte 1.6 -- -- 100
2018-01-06 23:00:00 0 0 Calma 3 Norte 2.4 -- -- 100
2018-01-06 22:00:00 0 0 Calma 4 Norte 1.2 -- -- 100
2018-01-06 21:00:00 0 0 Calma 2 Norte 1.8 -- -- 100
2018-01-06 20:00:00 0 0 Calma 0 Calma 3.2 -- -- 100
2018-01-06 19:00:00 0 0 Calma 5 Norte 2.4 -- -- 100
2018-01-06 18:00:00 0.1 2 Norte 5 Norte 3.8 -- -- 100
2018-01-06 17:00:00 0.3 4 Norte 6 Norte 3.4 -- -- 100
2018-01-06 16:00:00 0.2 0 Calma 4 Sudeste 5 -- -- 100
2018-01-06 15:00:00 0.2 0 Calma 8 Sudeste 3.2 -- -- 100
2018-01-06 14:00:00 0.7 4 Sudeste 6 Sudeste 3 -- -- 98
2018-01-06 13:00:00 2.7 4 Oeste 6 Oeste 2.6 -- -- 99
2018-01-06 12:00:00 3.4 4 Noroeste 6 Noroeste 1.6 -- -- 100
2018-01-06 11:00:00 3.5 0 Calma 4 Este 0.4 -- -- 100
2018-01-06 10:00:00 3.4 0 Calma 3 Sudoeste 1.2 -- -- 100
2018-01-06 09:00:00 3.5 0 Calma 5 Sur 0.8 -- -- 99
2018-01-06 08:00:00 3.8 3 Sur 6 Sur 1.4 -- -- 100
2018-01-06 07:00:00 4.1 2 Sudeste 8 Sudeste 1.4 -- -- 100
2018-01-06 06:00:00 4.4 5 Sudeste 9 Este 1.2 -- -- 100
2018-01-06 05:00:00 4.7 0 Calma 5 Norte 1.6 -- -- 100
2018-01-06 04:00:00 5 2 Nordeste 6 Norte 1.6 -- -- 99
2018-01-06 03:00:00 5.5 4 Este 6 Este 2.6 -- -- 100
2018-01-06 02:00:00 6.2 2 Sudoeste 5 Sudeste 2 -- -- 100
2018-01-06 01:00:00 6.6 0 Calma 4 Sudeste 2 -- -- 100
2018-01-06 00:00:00 6.8 0 Calma 4 Norte 2.6 -- -- 100
2018-01-05 23:00:00 7 0 Calma 6 Norte 2.4 -- -- 100
2018-01-05 22:00:00 7.4 0 Calma 12 Norte 0.6 -- -- 98
2018-01-05 21:00:00 7.9 7 Norte 18 Norte 1.8 -- -- 100
2018-01-05 20:00:00 8.2 0 Calma 5 Sudeste 0.2 -- -- 100
2018-01-05 19:00:00 8.4 3 Noroeste 4 Noroeste 0.4 -- -- 100
2018-01-05 18:00:00 8.6 2 Norte 7 Este 0.4 -- -- 100
2018-01-05 17:00:00 8.7 3 Sudeste 14 Noroeste 0.6 -- -- 99
2018-01-05 16:00:00 8.6 10 Noroeste 28 Norte 2.4 -- -- 97
2018-01-05 15:00:00 10.4 5 Noroeste 9 Noroeste 0.4 -- -- 99
2018-01-05 14:00:00 10.5 0 Calma 3 Noroeste 1.6 -- -- 98
2018-01-05 13:00:00 10.5 2 Sur 9 Noroeste 1 -- -- 98
2018-01-05 12:00:00 10.6 5 Noroeste 14 Noroeste 0.6 -- -- 95
2018-01-05 11:00:00 13.4 7 Norte 37 Este 0 -- -- 67
2018-01-05 10:00:00 13.7 14 Sur 37 Sur 0 -- -- 62
2018-01-05 09:00:00 14 12 Sur 40 Sur 0 -- -- 60
2018-01-05 08:00:00 14.2 14 Sur 58 Sur 0 -- -- 59
2018-01-05 07:00:00 14.4 23 Sur 60 Sudeste 0 -- -- 56
2018-01-05 06:00:00 14.4 13 Sur 79 Sur 0 -- -- 55
2018-01-05 05:00:00 14.2 5 Nordeste 34 Sudeste 0 -- -- 59
2018-01-05 04:00:00 14.5 11 Sudoeste 37 Nordeste 0 -- -- 59
2018-01-05 03:00:00 14.5 9 Sudeste 21 Este 0 -- -- 59
2018-01-05 02:00:00 14.8 6 Sudeste 35 Noroeste 0 -- -- 59
2018-01-05 01:00:00 15 13 Noroeste 26 Noroeste 0 -- -- 60
2018-01-05 00:00:00 14.7 12 Noroeste 21 Noroeste 0 -- -- 65
2018-01-04 23:00:00 13.5 6 Nordeste 9 Nordeste 0 -- -- 72
2018-01-04 22:00:00 13 3 Norte 9 Norte 0 -- -- 74
2018-01-04 21:00:00 12.2 5 Norte 12 Este 0 -- -- 77
2018-01-04 20:00:00 14.5 5 Norte 24 Norte 0 -- -- 66
2018-01-04 19:00:00 15.3 8 Norte 21 Noroeste 0 -- -- 60
2018-01-04 18:00:00 15.2 8 Norte 24 Norte 0 -- -- 62
2018-01-04 17:00:00 16.1 8 Este 27 Sur 0 -- -- 59
2018-01-04 16:00:00 17.4 12 Sur 28 Sudeste 0 -- -- 57
2018-01-04 15:00:00 17.9 15 Sur 33 Sur 0 -- -- 56
2018-01-04 14:00:00 16.6 9 Nordeste 26 Nordeste 0 -- -- 62
2018-01-04 13:00:00 16.8 8 Este 23 Noroeste 0 -- -- 63
2018-01-04 12:00:00 16 8 Nordeste 22 Norte 0 -- -- 68
2018-01-04 11:00:00 11.7 3 Sudeste 8 Sudoeste 0 -- -- 100
2018-01-04 10:00:00 9.7 2 Sudeste 7 Sudeste 0 -- -- 100
2018-01-04 09:00:00 8.8 2 Norte 4 Norte 0 -- -- 100
2018-01-04 08:00:00 8.8 2 Sur 10 Sudeste 0 -- -- 100
2018-01-04 07:00:00 9.4 3 Nordeste 7 Noroeste 0 -- -- 100
2018-01-04 06:00:00 10 3 Noroeste 8 Sudeste 0 -- -- 100
2018-01-04 05:00:00 11.1 3 Norte 7 Noroeste 0 -- -- 100
2018-01-04 04:00:00 11.2 0 Calma 7 Sudeste 0 -- -- 100
2018-01-04 03:00:00 11.4 3 Noroeste 6 Este 0 -- -- 100
2018-01-04 02:00:00 11.7 3 Sudeste 7 Norte 0 -- -- 100
2018-01-04 01:00:00 11.9 0 Calma 7 Noroeste 0 -- -- 100
2018-01-04 00:00:00 12.2 2 Este 8 Sudeste 0 -- -- 100
2018-01-03 23:00:00 12.3 0 Calma 5 Noroeste 0 -- -- 100
2018-01-03 22:00:00 12.4 3 Este 10 Norte 0 -- -- 100
2018-01-03 21:00:00 12.7 4 Este 8 Noroeste 0 -- -- 100
2018-01-03 20:00:00 13 2 Sudeste 6 Noroeste 0.2 -- -- 100
2018-01-03 19:00:00 13.4 4 Norte 6 Norte 0 -- -- 99
2018-01-03 18:00:00 14 3 Norte 9 Este 0 -- -- 97
2018-01-03 17:00:00 14.8 7 Norte 17 Norte 0 -- -- 94
2018-01-03 16:00:00 16.3 3 Este 9 Este 0 -- -- 89
2018-01-03 15:00:00 15.8 4 Noroeste 9 Noroeste 0 -- -- 95
2018-01-03 14:00:00 15.6 0 Calma 5 Este 0 -- -- 95
2018-01-03 13:00:00 14.8 3 Norte 10 Sudeste 0.2 -- -- 100
2018-01-03 12:00:00 14.3 0 Calma 5 Norte 0 -- -- 100
2018-01-03 11:00:00 12.7 2 Sudeste 7 Sudeste 0 -- -- 100
2018-01-03 10:00:00 12 2 Sur 6 Oeste 0 -- -- 100
2018-01-03 09:00:00 11.8 2 Sudeste 7 Noroeste 0 -- -- 100
2018-01-03 08:00:00 11.4 3 Sudeste 10 Norte 0 -- -- 100
2018-01-03 07:00:00 10.6 6 Norte 8 Norte 0 -- -- 100
2018-01-03 06:00:00 10.8 4 Noroeste 8 Oeste 0 -- -- 100
2018-01-03 05:00:00 10.6 2 Norte 8 Noroeste 0 -- -- 100
2018-01-03 04:00:00 10 3 Este 8 Noroeste 0 -- -- 100
2018-01-03 03:00:00 10.3 4 Norte 10 Este 0 -- -- 100
2018-01-03 02:00:00 9.9 6 Sudeste 9 Sudeste 0 -- -- 100
2018-01-03 01:00:00 9.7 3 Sudeste 4 Oeste 0 -- -- 100
2018-01-03 00:00:00 9.6 0 Calma 6 Noroeste 0 -- -- 100
2018-01-02 23:00:00 10 3 Norte 7 Noroeste 0 -- -- 100
2018-01-02 22:00:00 10.5 4 Noroeste 7 Norte 0 -- -- 100
2018-01-02 21:00:00 11 4 Norte 8 Noroeste 0 -- -- 100
2018-01-02 20:00:00 11.3 0 Calma 7 Noroeste 0 -- -- 100
2018-01-02 19:00:00 11.3 4 Norte 9 Noroeste 0 -- -- 100
2018-01-02 18:00:00 12.1 3 Norte 8 Noroeste 0 -- -- 99
2018-01-02 17:00:00 13.2 4 Norte 7 Noroeste 0 -- -- 98
2018-01-02 16:00:00 14.2 3 Noroeste 6 Norte 0 -- -- 95
2018-01-02 15:00:00 12.8 0 Calma 4 Noroeste 0 -- -- 100
2018-01-02 14:00:00 11.8 2 Sur 4 Sur 0.6 -- -- 100
2018-01-02 13:00:00 11.2 0 Calma 5 Sur 0.8 -- -- 100
2018-01-02 12:00:00 10.4 0 Calma 6 Noroeste 1.4 -- -- 100
2018-01-02 11:00:00 10 2 Noroeste 7 Noroeste 1.6 -- -- 100
2018-01-02 10:00:00 9.4 4 Noroeste 12 Noroeste 0 -- -- 100
2018-01-02 09:00:00 8.8 6 Noroeste 12 Noroeste 0 -- -- 100
2018-01-02 08:00:00 8.5 5 Noroeste 8 Noroeste 0.2 -- -- 100
2018-01-02 07:00:00 8.4 0 Calma 9 Noroeste 0 -- -- 100
2018-01-02 06:00:00 8.6 0 Calma 9 Norte 0 -- -- 100
2018-01-02 05:00:00 8.6 3 Norte 8 Sudeste 0.2 -- -- 100
2018-01-02 04:00:00 8.7 3 Sudeste 10 Norte 1.4 -- -- 100
2018-01-02 03:00:00 8.8 3 Noroeste 6 Noroeste 1 -- -- 100
2018-01-02 02:00:00 9 0 Calma 4 Sudoeste 1 -- -- 100
2018-01-02 01:00:00 9.1 0 Calma 6 Norte 0.6 -- -- 100
2018-01-02 00:00:00 9.2 0 Calma 12 Sudeste 1.4 -- -- 100
2018-01-01 23:00:00 9.4 9 Sudeste 17 Este 1.6 -- -- 100
2018-01-01 22:00:00 9.6 3 Sudeste 12 Este 2.2 -- -- 100
2018-01-01 21:00:00 10.2 4 Norte 32 Norte 2.4 -- -- 96
2018-01-01 20:00:00 10.4 11 Noroeste 37 Norte 2.6 -- -- 92
2018-01-01 19:00:00 10.2 11 Noroeste 28 Nordeste 5.6 -- -- 99
2018-01-01 18:00:00 8.8 3 Oeste 11 Noroeste 3.8 -- -- 100
2018-01-01 17:00:00 9 0 Calma 13 Noroeste 1.8 -- -- 98
2018-01-01 16:00:00 10.5 5 Este 40 Sur 2.8 -- -- 85
2018-01-01 15:00:00 12.9 11 Nordeste 45 Sudeste 0 -- -- 60
2018-01-01 14:00:00 12.4 22 Sudeste 48 Sudeste 0 -- -- 60
2018-01-01 13:00:00 12.4 15 Este 37 Oeste 0 -- -- 60
2018-01-01 12:00:00 11.8 14 Este 36 Sur 0 -- -- 61
2018-01-01 11:00:00 10.3 17 Sur 45 Sur 0 -- -- 65
2018-01-01 10:00:00 5.7 4 Norte 15 Norte 0 -- -- 94
2018-01-01 09:00:00 5.3 5 Noroeste 18 Norte 0 -- -- 100
2018-01-01 08:00:00 1.7 6 Noroeste 14 Norte 0 -- -- 100
2018-01-01 07:00:00 1.2 6 Noroeste 10 Noroeste 0 -- -- 100
2018-01-01 06:00:00 1.2 0 Calma 7 Noroeste 0 -- -- 100
2018-01-01 05:00:00 1.3 2 Este 7 Este 0 -- -- 100
2018-01-01 04:00:00 1.8 0 Calma 5 Sudeste 0 -- -- 100
2018-01-01 03:00:00 2 4 Norte 7 Noroeste 0 -- -- 100
2018-01-01 02:00:00 2.9 0 Calma 5 Este 0 -- -- 100
2018-01-01 01:00:00 3.5 2 Sudeste 6 Este 0 -- -- 100
2018-01-01 00:00:00 4 3 Norte 6 Norte 0 -- -- 100
2017-12-31 23:00:00 4.8 2 Norte 8 Noroeste 0 -- -- 100
2017-12-31 22:00:00 5.6 5 Norte 9 Norte 0 -- -- 100
2017-12-31 21:00:00 6 6 Sudeste 10 Sudeste 0 -- -- 100
2017-12-31 20:00:00 6.6 5 Norte 9 Noroeste 0.2 -- -- 99
2017-12-31 19:00:00 6.9 4 Este 11 Sudeste 1.6 -- -- 98
2017-12-31 18:00:00 7.3 3 Sudeste 39 Norte 2.4 -- -- 95
2017-12-31 17:00:00 8.7 15 Noroeste 46 Norte 3 -- -- 88
2017-12-31 16:00:00 12.9 21 Norte 37 Noroeste 0.2 -- -- 78
2017-12-31 15:00:00 16 13 Sudeste 56 Sudeste 0 -- -- 51
2017-12-31 14:00:00 17.1 23 Sur 73 Sur 0 -- -- 48
2017-12-31 13:00:00 15.9 19 Sur 48 Sur 0 -- -- 49
2017-12-31 12:00:00 14.2 12 Sur 29 Sudeste 0 -- -- 58
2017-12-31 11:00:00 13.5 12 Sur 46 Sudeste 0 -- -- 60
2017-12-31 10:00:00 13.7 22 Sur 50 Sudeste 0 -- -- 58
2017-12-31 09:00:00 13 13 Sur 38 Sur 0 -- -- 62
2017-12-31 08:00:00 12.9 17 Sur 32 Sur 0 -- -- 64
2017-12-31 07:00:00 12.8 13 Sur 24 Sudeste 0 -- -- 64
2017-12-31 06:00:00 8.7 4 Norte 13 Noroeste 0 -- -- 88
2017-12-31 05:00:00 8.9 5 Noroeste 9 Noroeste 0 -- -- 88
2017-12-31 04:00:00 7.7 6 Noroeste 8 Noroeste 0 -- -- 94
2017-12-31 03:00:00 6.9 3 Norte 7 Noroeste 0 -- -- 97
2017-12-31 02:00:00 6.9 2 Norte 5 Noroeste 0 -- -- 97
2017-12-31 01:00:00 7.4 2 Noroeste 5 Noroeste 0 -- -- 96
2017-12-31 00:00:00 7.8 0 Calma 6 Noroeste 0 -- -- 95